createdAt,value
2016-12-18T00:00:56.724Z,84.55
2016-12-18T00:02:06.563Z,84.45
2016-12-18T00:03:15.751Z,84.92
2016-12-18T00:04:25.276Z,84.92
2016-12-18T00:05:34.484Z,84.92
2016-12-18T00:06:43.992Z,84.64
2016-12-18T00:07:53.798Z,84.92
2016-12-18T00:09:02.988Z,84.83
2016-12-18T00:10:12.814Z,85.3
2016-12-18T00:11:22.289Z,85.11
2016-12-18T00:12:31.787Z,84.74
2016-12-18T00:13:41.579Z,85.21
2016-12-18T00:14:51.367Z,85.49
2016-12-18T00:16:00.847Z,85.49
2016-12-18T00:17:10.689Z,85.3
2016-12-18T00:18:20.209Z,85.49
2016-12-18T00:19:29.729Z,85.49
2016-12-18T00:20:39.292Z,85.4
2016-12-18T00:21:49.127Z,85.4
2016-12-18T00:22:58.963Z,85.78
2016-12-18T00:24:08.443Z,85.49
2016-12-18T00:25:17.937Z,85.59
2016-12-18T00:26:27.727Z,85.59
2016-12-18T00:27:37.233Z,85.21
2016-12-18T00:28:47.058Z,85.49
2016-12-18T00:29:56.996Z,85.02
2016-12-18T00:31:06.793Z,84.92
2016-12-18T00:32:16.269Z,85.11
2016-12-18T00:33:26.066Z,84.92
2016-12-18T00:34:35.799Z,84.92
2016-12-18T00:35:45.602Z,85.02
2016-12-18T00:36:55.407Z,84.92
2016-12-18T00:38:04.892Z,85.11
2016-12-18T00:39:14.785Z,85.11
2016-12-18T00:40:24.265Z,85.59
2016-12-18T00:41:33.780Z,85.3
2016-12-18T00:42:43.305Z,85.4
2016-12-18T00:43:52.861Z,85.4
2016-12-18T00:45:02.676Z,85.4
2016-12-18T00:46:12.171Z,85.4
2016-12-18T00:47:21.950Z,85.78
2016-12-18T00:48:31.437Z,85.3
2016-12-18T00:49:41.252Z,85.4
2016-12-18T00:50:51.168Z,85.3
2016-12-18T00:52:00.645Z,85.3
2016-12-18T00:53:10.473Z,85.4
2016-12-18T00:54:20.250Z,85.21
2016-12-18T00:55:29.802Z,85.4
2016-12-18T00:56:39.578Z,85.59
2016-12-18T00:57:49.453Z,85.59
2016-12-18T00:58:58.934Z,85.97
2016-12-18T01:00:08.099Z,85.97
2016-12-18T01:01:17.579Z,85.68
2016-12-18T01:02:27.384Z,85.87
2016-12-18T01:03:37.269Z,85.97
2016-12-18T01:04:46.741Z,85.78
2016-12-18T01:05:56.326Z,86.25
2016-12-18T01:07:05.485Z,86.35
2016-12-18T01:08:15.369Z,86.16
2016-12-18T01:09:25.159Z,86.54
2016-12-18T01:10:34.347Z,86.25
2016-12-18T01:11:44.217Z,86.07
2016-12-18T01:12:54.036Z,86.16
2016-12-18T01:14:03.569Z,86.25
2016-12-18T01:15:13.419Z,85.68
2016-12-18T01:16:22.889Z,86.16
2016-12-18T01:17:32.045Z,86.54
2016-12-18T01:18:41.873Z,85.87
2016-12-18T01:19:51.684Z,85.87
2016-12-18T01:21:01.211Z,85.87
2016-12-18T01:22:10.397Z,85.97
2016-12-18T01:23:19.889Z,86.16
2016-12-18T01:24:29.084Z,86.25
2016-12-18T01:25:38.294Z,85.97
2016-12-18T01:26:48.085Z,86.25
2016-12-18T01:27:57.898Z,86.25
2016-12-18T01:29:07.718Z,86.25
2016-12-18T01:30:17.498Z,86.63
2016-12-18T01:31:27.321Z,86.54
2016-12-18T01:32:37.124Z,86.82
2016-12-18T01:33:46.918Z,86.25
2016-12-18T01:34:56.407Z,86.54
2016-12-18T01:36:06.232Z,86.35
2016-12-18T01:37:15.721Z,86.44
2016-12-18T01:38:25.291Z,86.63
2016-12-18T01:39:35.076Z,86.44
2016-12-18T01:40:44.580Z,86.25
2016-12-18T01:41:54.065Z,86.35
2016-12-18T01:43:03.545Z,86.63
2016-12-18T01:44:13.339Z,86.63
2016-12-18T01:45:22.823Z,86.25
2016-12-18T01:46:32.791Z,86.82
2016-12-18T01:47:42.627Z,86.82
2016-12-18T01:48:52.412Z,86.63
2016-12-18T01:50:01.892Z,86.72
2016-12-18T01:51:11.100Z,86.72
2016-12-18T01:52:20.938Z,86.63
2016-12-18T01:53:30.492Z,87.15
2016-12-18T01:54:40.006Z,87.01
2016-12-18T01:55:49.809Z,86.87
2016-12-18T01:56:59.625Z,86.82
2016-12-18T01:58:09.426Z,86.68
2016-12-18T01:59:18.587Z,86.77
2016-12-18T02:00:28.366Z,86.68
2016-12-18T02:01:38.147Z,86.58
2016-12-18T02:02:47.756Z,86.39
2016-12-18T02:03:57.224Z,86.58
2016-12-18T02:05:07.004Z,86.3
2016-12-18T02:06:16.817Z,86.63
2016-12-18T02:07:26.383Z,86.16
2016-12-18T02:08:35.851Z,86.63
2016-12-18T02:09:45.711Z,86.82
2016-12-18T02:10:55.491Z,86.72
2016-12-18T02:12:04.667Z,86.44
2016-12-18T02:13:14.479Z,86.58
2016-12-18T02:14:23.660Z,86.77
2016-12-18T02:15:33.246Z,86.11
2016-12-18T02:16:42.748Z,86.35
2016-12-18T02:17:52.242Z,86.35
2016-12-18T02:19:02.058Z,86.2
2016-12-18T02:20:11.835Z,86.25
2016-12-18T02:21:21.368Z,86.25
2016-12-18T02:22:30.885Z,86.54
2016-12-18T02:23:40.373Z,86.82
2016-12-18T02:24:50.243Z,86.72
2016-12-18T02:25:59.451Z,86.72
2016-12-18T02:27:08.957Z,86.68
2016-12-18T02:28:18.797Z,86.16
2016-12-18T02:29:28.396Z,86.35
2016-12-18T02:30:38.055Z,85.97
2016-12-18T02:31:47.634Z,85.97
2016-12-18T02:32:57.554Z,86.35
2016-12-18T02:34:07.059Z,86.63
2016-12-18T02:35:16.847Z,86.77
2016-12-18T02:36:26.385Z,86.39
2016-12-18T02:37:36.167Z,86.58
2016-12-18T02:38:45.698Z,86.3
2016-12-18T02:39:55.195Z,86.49
2016-12-18T02:41:04.703Z,86.01
2016-12-18T02:42:14.540Z,86.68
2016-12-18T02:43:24.493Z,86.58
2016-12-18T02:44:34.320Z,86.68
2016-12-18T02:45:44.105Z,86.3
2016-12-18T02:46:53.597Z,86.11
2016-12-18T02:48:02.570Z,86.11
2016-12-18T02:49:12.386Z,86.58
2016-12-18T02:50:22.266Z,86.58
2016-12-18T02:51:31.763Z,86.39
2016-12-18T02:52:41.319Z,86.49
2016-12-18T02:53:50.817Z,86.49
2016-12-18T02:55:00.644Z,86.2
2016-12-18T02:56:10.133Z,86.49
2016-12-18T02:57:19.608Z,86.49
2016-12-18T02:58:28.812Z,86.68
2016-12-18T02:59:38.605Z,86.49
2016-12-18T03:00:48.389Z,86.58
2016-12-18T03:01:57.879Z,86.2
2016-12-18T03:03:07.663Z,86.39
2016-12-18T03:04:16.573Z,86.3
2016-12-18T03:05:26.385Z,86.58
2016-12-18T03:06:36.198Z,86.72
2016-12-18T03:07:45.991Z,86.63
2016-12-18T03:08:55.546Z,87.05
2016-12-18T03:10:05.622Z,87.2
2016-12-18T03:11:15.464Z,87.15
2016-12-18T03:12:25.091Z,87.2
2016-12-18T03:13:34.885Z,87.39
2016-12-18T03:14:44.055Z,87.3
2016-12-18T03:15:53.670Z,87.11
2016-12-18T03:17:03.460Z,87.2
2016-12-18T03:18:13.263Z,87.49
2016-12-18T03:19:22.746Z,87.01
2016-12-18T03:20:32.238Z,87.3
2016-12-18T03:21:42.017Z,87.49
2016-12-18T03:22:51.179Z,87.3
2016-12-18T03:24:01.017Z,87.3
2016-12-18T03:25:10.596Z,87.3
2016-12-18T03:26:20.437Z,87.11
2016-12-18T03:27:30.259Z,87.3
2016-12-18T03:28:39.422Z,87.11
2016-12-18T03:29:49.234Z,87.11
2016-12-18T03:30:58.406Z,87.05
2016-12-18T03:32:07.886Z,87.2
2016-12-18T03:33:17.795Z,87.15
2016-12-18T03:34:27.619Z,87.34
2016-12-18T03:35:36.789Z,87.05
2016-12-18T03:36:46.594Z,87.24
2016-12-18T03:37:56.089Z,87.24
2016-12-18T03:39:05.254Z,86.96
2016-12-18T03:40:14.409Z,87.34
2016-12-18T03:41:23.634Z,87.05
2016-12-18T03:42:33.436Z,87.05
2016-12-18T03:43:43.215Z,87.24
2016-12-18T03:44:52.718Z,87.05
2016-12-18T03:46:02.506Z,87.24
2016-12-18T03:47:11.990Z,86.96
2016-12-18T03:48:21.801Z,86.96
2016-12-18T03:49:31.710Z,87.34
2016-12-18T03:50:41.517Z,86.68
2016-12-18T03:51:50.988Z,86.58
2016-12-18T03:53:00.951Z,86.58
2016-12-18T03:54:10.762Z,86.87
2016-12-18T03:55:20.255Z,86.77
2016-12-18T03:56:29.788Z,86.96
2016-12-18T03:57:39.603Z,86.68
2016-12-18T03:58:49.127Z,86.49
2016-12-18T03:59:58.655Z,86.87
2016-12-18T04:01:08.152Z,87.34
2016-12-18T04:02:17.622Z,86.96
2016-12-18T04:03:27.556Z,87.15
2016-12-18T04:04:37.351Z,86.96
2016-12-18T04:05:47.169Z,87.24
2016-12-18T04:06:56.950Z,87.24
2016-12-18T04:08:06.733Z,87.24
2016-12-18T04:09:16.211Z,87.15
2016-12-18T04:10:25.376Z,87.05
2016-12-18T04:11:34.870Z,87.43
2016-12-18T04:12:44.411Z,87.72
2016-12-18T04:13:54.238Z,87.53
2016-12-18T04:15:03.401Z,87.62
2016-12-18T04:16:12.894Z,87.62
2016-12-18T04:17:22.717Z,87.62
2016-12-18T04:18:32.489Z,88.29
2016-12-18T04:19:41.990Z,88.1
2016-12-18T04:20:51.905Z,88.29
2016-12-18T04:22:01.549Z,88.2
2016-12-18T04:23:11.398Z,88.1
2016-12-18T04:24:21.202Z,88.1
2016-12-18T04:25:30.703Z,88.2
2016-12-18T04:26:40.713Z,88.86
2016-12-18T04:27:49.630Z,88.57
2016-12-18T04:28:59.416Z,88.86
2016-12-18T04:30:09.226Z,88.76
2016-12-18T04:31:18.724Z,88.57
2016-12-18T04:32:28.612Z,88.57
2016-12-18T04:33:38.395Z,88.76
2016-12-18T04:34:47.881Z,89.14
2016-12-18T04:35:57.670Z,89.24
2016-12-18T04:37:07.147Z,88.95
2016-12-18T04:38:17.022Z,88.86
2016-12-18T04:39:26.517Z,89.05
2016-12-18T04:40:36.326Z,88.76
2016-12-18T04:41:45.901Z,89.14
2016-12-18T04:42:55.699Z,88.76
2016-12-18T04:44:05.544Z,89.24
2016-12-18T04:45:15.344Z,89.43
2016-12-18T04:46:24.809Z,89.33
2016-12-18T04:47:34.599Z,89.62
2016-12-18T04:48:44.360Z,89.05
2016-12-18T04:49:53.924Z,89.33
2016-12-18T04:51:03.735Z,88.67
2016-12-18T04:52:12.977Z,88.86
2016-12-18T04:53:22.435Z,88.95
2016-12-18T04:54:32.048Z,89.24
2016-12-18T04:55:41.824Z,88.86
2016-12-18T04:56:51.656Z,89.33
2016-12-18T04:58:01.152Z,88.95
2016-12-18T04:59:10.683Z,89.24
2016-12-18T05:00:20.514Z,89.24
2016-12-18T05:01:29.992Z,88.95
2016-12-18T05:02:39.464Z,89.05
2016-12-18T05:03:48.961Z,88.48
2016-12-18T05:04:57.859Z,89.53
2016-12-18T05:06:07.672Z,89.43
2016-12-18T05:07:17.153Z,89.43
2016-12-18T05:08:26.680Z,89.24
2016-12-18T05:09:36.178Z,89.53
2016-12-18T05:10:45.671Z,89.33
2016-12-18T05:11:55.461Z,89.53
2016-12-18T05:13:05.242Z,88.95
2016-12-18T05:14:15.035Z,89.24
2016-12-18T05:15:24.541Z,89.43
2016-12-18T05:16:33.760Z,88.95
2016-12-18T05:17:43.235Z,88.95
2016-12-18T05:18:52.715Z,89.33
2016-12-18T05:20:02.548Z,88.86
2016-12-18T05:21:12.227Z,88.86
2016-12-18T05:22:22.011Z,89.33
2016-12-18T05:23:31.795Z,88.76
2016-12-18T05:24:41.337Z,89.43
2016-12-18T05:25:50.824Z,89.53
2016-12-18T05:27:00.624Z,88.48
2016-12-18T05:28:10.144Z,89.14
2016-12-18T05:29:19.946Z,89.05
2016-12-18T05:30:29.810Z,89.24
2016-12-18T05:31:39.311Z,89.14
2016-12-18T05:32:48.921Z,89.05
2016-12-18T05:33:58.447Z,89.05
2016-12-18T05:35:08.127Z,89.05
2016-12-18T05:36:17.594Z,88.86
2016-12-18T05:37:27.066Z,89.14
2016-12-18T05:38:36.871Z,88.76
2016-12-18T05:39:46.383Z,89.05
2016-12-18T05:40:56.257Z,89.24
2016-12-18T05:42:06.185Z,88.86
2016-12-18T05:43:15.992Z,88.86
2016-12-18T05:44:25.798Z,88.76
2016-12-18T05:45:35.281Z,89.05
2016-12-18T05:46:44.817Z,89.33
2016-12-18T05:47:54.612Z,89.14
2016-12-18T05:49:04.260Z,88.86
2016-12-18T05:50:14.158Z,88.76
2016-12-18T05:51:23.932Z,88.57
2016-12-18T05:52:33.711Z,88.86
2016-12-18T05:53:43.394Z,88.76
2016-12-18T05:54:52.920Z,88.48
2016-12-18T05:56:02.105Z,88.57
2016-12-18T05:57:11.610Z,88.57
2016-12-18T05:58:21.433Z,88.67
2016-12-18T05:59:31.212Z,88.76
2016-12-18T06:00:41.045Z,88.57
2016-12-18T06:01:50.523Z,88.76
2016-12-18T06:03:00.006Z,88.86
2016-12-18T06:04:09.793Z,88.86
2016-12-18T06:05:18.953Z,88.57
2016-12-18T06:06:28.476Z,88.57
2016-12-18T06:07:38.260Z,88.1
2016-12-18T06:08:47.459Z,88.01
2016-12-18T06:09:57.348Z,88.1
2016-12-18T06:11:07.134Z,88.1
2016-12-18T06:12:16.920Z,88.29
2016-12-18T06:13:26.081Z,88.39
2016-12-18T06:14:35.589Z,88.2
2016-12-18T06:15:45.159Z,88.29
2016-12-18T06:16:55.037Z,88.2
2016-12-18T06:18:04.877Z,88.29
2016-12-18T06:19:14.355Z,88.2
2016-12-18T06:20:24.135Z,87.91
2016-12-18T06:21:33.316Z,88.1
2016-12-18T06:22:43.118Z,88.29
2016-12-18T06:23:52.928Z,88.1
2016-12-18T06:25:02.141Z,88.39
2016-12-18T06:26:11.623Z,88.29
2016-12-18T06:27:21.438Z,88.39
2016-12-18T06:28:30.948Z,88.29
2016-12-18T06:29:40.841Z,88.39
2016-12-18T06:30:50.643Z,87.82
2016-12-18T06:32:00.123Z,87.62
2016-12-18T06:33:09.613Z,87.62
2016-12-18T06:34:19.308Z,87.82
2016-12-18T06:35:29.092Z,87.91
2016-12-18T06:36:38.868Z,87.43
2016-12-18T06:37:48.394Z,87.43
2016-12-18T06:38:58.317Z,87.43
2016-12-18T06:40:08.130Z,87.62
2016-12-18T06:41:17.956Z,87.72
2016-12-18T06:42:27.823Z,87.53
2016-12-18T06:43:37.297Z,87.72
2016-12-18T06:44:47.127Z,87.62
2016-12-18T06:45:56.952Z,87.62
2016-12-18T06:47:06.571Z,87.53
2016-12-18T06:48:16.069Z,87.34
2016-12-18T06:49:25.928Z,87.24
2016-12-18T06:50:34.770Z,87.15
2016-12-18T06:51:44.682Z,87.53
2016-12-18T06:52:54.184Z,87.34
2016-12-18T06:54:03.684Z,87.24
2016-12-18T06:55:13.488Z,87.43
2016-12-18T06:56:22.961Z,87.05
2016-12-18T06:57:32.785Z,87.05
2016-12-18T06:58:42.573Z,86.96
2016-12-18T06:59:52.395Z,86.96
2016-12-18T07:01:02.192Z,87.15
2016-12-18T07:02:12.090Z,87.15
2016-12-18T07:03:21.875Z,86.96
2016-12-18T07:04:31.670Z,86.96
2016-12-18T07:05:41.454Z,87.05
2016-12-18T07:06:50.961Z,87.24
2016-12-18T07:08:00.455Z,86.68
2016-12-18T07:09:09.647Z,87.05
2016-12-18T07:10:18.804Z,86.87
2016-12-18T07:11:28.309Z,86.68
2016-12-18T07:12:37.783Z,86.58
2016-12-18T07:13:47.675Z,86.49
2016-12-18T07:14:57.646Z,86.77
2016-12-18T07:16:07.117Z,86.77
2016-12-18T07:17:16.315Z,86.77
2016-12-18T07:18:25.665Z,86.77
2016-12-18T07:19:35.142Z,86.68
2016-12-18T07:20:44.641Z,86.49
2016-12-18T07:21:53.928Z,86.39
2016-12-18T07:23:03.428Z,86.3
2016-12-18T07:24:13.034Z,86.3
2016-12-18T07:25:22.515Z,86.39
2016-12-18T07:26:31.722Z,86.39
2016-12-18T07:27:41.236Z,86.39
2016-12-18T07:28:50.448Z,86.49
2016-12-18T07:29:59.990Z,86.58
2016-12-18T07:31:09.592Z,86.3
2016-12-18T07:32:19.063Z,86.3
2016-12-18T07:33:28.560Z,86.01
2016-12-18T07:34:38.171Z,86.2
2016-12-18T07:35:47.948Z,86.49
2016-12-18T07:36:56.871Z,85.91
2016-12-18T07:38:06.471Z,85.91
2016-12-18T07:39:16.292Z,85.91
2016-12-18T07:40:25.762Z,85.82
2016-12-18T07:41:35.683Z,86.01
2016-12-18T07:42:45.180Z,85.82
2016-12-18T07:43:54.978Z,86.2
2016-12-18T07:45:04.173Z,85.91
2016-12-18T07:46:14.012Z,86.11
2016-12-18T07:47:23.480Z,86.01
2016-12-18T07:48:33.383Z,85.53
2016-12-18T07:49:43.169Z,86.01
2016-12-18T07:50:52.380Z,85.91
2016-12-18T07:52:01.918Z,85.91
2016-12-18T07:53:11.778Z,85.91
2016-12-18T07:54:21.677Z,85.63
2016-12-18T07:55:31.196Z,85.53
2016-12-18T07:56:40.673Z,85.72
2016-12-18T07:57:50.142Z,85.63
2016-12-18T07:58:59.931Z,85.63
2016-12-18T08:00:09.755Z,85.63
2016-12-18T08:01:19.542Z,85.82
2016-12-18T08:02:29.351Z,85.44
2016-12-18T08:03:39.149Z,85.44
2016-12-18T08:04:48.969Z,85.63
2016-12-18T08:05:58.765Z,85.44
2016-12-18T08:07:08.246Z,85.77
2016-12-18T08:08:17.623Z,85.35
2016-12-18T08:09:27.462Z,85.58
2016-12-18T08:10:36.930Z,85.53
2016-12-18T08:11:46.406Z,85.35
2016-12-18T08:12:55.584Z,85.53
2016-12-18T08:14:05.398Z,85.72
2016-12-18T08:15:15.284Z,85.53
2016-12-18T08:16:24.784Z,85.63
2016-12-18T08:17:34.598Z,85.82
2016-12-18T08:18:44.385Z,85.96
2016-12-18T08:19:53.934Z,85.77
2016-12-18T08:21:03.103Z,85.91
2016-12-18T08:22:12.606Z,86.01
2016-12-18T08:23:21.809Z,86.05
2016-12-18T08:24:31.593Z,85.96
2016-12-18T08:25:41.070Z,86.63
2016-12-18T08:26:50.849Z,86.11
2016-12-18T08:28:00.637Z,86.34
2016-12-18T08:29:10.418Z,86.2
2016-12-18T08:30:20.194Z,86.63
2016-12-18T08:31:30.005Z,86.72
2016-12-18T08:32:39.798Z,86.34
2016-12-18T08:33:48.974Z,86.43
2016-12-18T08:34:58.676Z,86.43
2016-12-18T08:36:08.179Z,86.77
2016-12-18T08:37:18.007Z,86.63
2016-12-18T08:38:27.535Z,86.49
2016-12-18T08:39:36.733Z,87.38
2016-12-18T08:40:46.542Z,87.24
2016-12-18T08:41:56.349Z,86.87
2016-12-18T08:43:06.130Z,86.87
2016-12-18T08:44:15.982Z,86.91
2016-12-18T08:45:25.844Z,87.19
2016-12-18T08:46:35.645Z,87.19
2016-12-18T08:47:45.124Z,87.1
2016-12-18T08:48:54.321Z,87.05
2016-12-18T08:50:04.026Z,86.96
2016-12-18T08:51:13.597Z,87.01
2016-12-18T08:52:22.798Z,87.01
2016-12-18T08:53:32.302Z,87.01
2016-12-18T08:54:42.087Z,87.05
2016-12-18T08:55:51.577Z,87.01
2016-12-18T08:57:01.396Z,87.1
2016-12-18T08:58:11.312Z,87.1
2016-12-18T08:59:21.178Z,87.01
2016-12-18T09:00:13.425Z,87.48
2016-12-18T09:01:23.257Z,87.01
2016-12-18T09:02:33.039Z,87.48
2016-12-18T09:03:42.839Z,87.19
2016-12-18T09:04:52.318Z,87.01
2016-12-18T09:06:02.106Z,87.1
2016-12-18T09:07:12.080Z,87.01
2016-12-18T09:08:21.563Z,87.1
2016-12-18T09:09:31.615Z,87.29
2016-12-18T09:10:41.177Z,87.01
2016-12-18T09:11:50.817Z,87.19
2016-12-18T09:13:00.593Z,87.01
2016-12-18T09:14:09.808Z,87.01
2016-12-18T09:15:19.628Z,87.1
2016-12-18T09:16:29.263Z,87.1
2016-12-18T09:17:38.751Z,86.63
2016-12-18T09:18:48.535Z,86.91
2016-12-18T09:19:58.037Z,86.72
2016-12-18T09:21:07.251Z,86.82
2016-12-18T09:22:16.735Z,86.82
2016-12-18T09:23:26.640Z,86.72
2016-12-18T09:24:36.196Z,86.91
2016-12-18T09:25:45.668Z,86.82
2016-12-18T09:26:55.457Z,86.63
2016-12-18T09:28:11.526Z,87.01
2016-12-18T09:29:21.332Z,87.29
2016-12-18T09:30:30.499Z,86.82
2016-12-18T09:31:39.995Z,86.91
2016-12-18T09:32:49.914Z,87.29
2016-12-18T09:33:59.460Z,87.48
2016-12-18T09:35:08.987Z,87.38
2016-12-18T09:36:18.924Z,87.19
2016-12-18T09:37:28.724Z,87.19
2016-12-18T09:38:38.567Z,87.01
2016-12-18T09:39:48.395Z,87.86
2016-12-18T09:40:58.173Z,87.76
2016-12-18T09:42:07.984Z,87.48
2016-12-18T09:43:17.759Z,87.86
2016-12-18T09:44:27.560Z,87.67
2016-12-18T09:45:36.742Z,87.76
2016-12-18T09:46:46.526Z,87.76
2016-12-18T09:47:56.017Z,87.76
2016-12-18T09:49:05.812Z,87.76
2016-12-18T09:50:15.332Z,87.76
2016-12-18T09:51:25.154Z,87.76
2016-12-18T09:52:34.623Z,87.38
2016-12-18T09:53:43.807Z,87.38
2016-12-18T09:54:53.620Z,87.01
2016-12-18T09:56:03.408Z,86.91
2016-12-18T09:57:13.206Z,87.05
2016-12-18T09:58:23.000Z,87.24
2016-12-18T09:59:32.597Z,87.14
2016-12-18T10:00:41.797Z,87.14
2016-12-18T10:01:51.295Z,86.86
2016-12-18T10:03:00.824Z,87.05
2016-12-18T10:04:10.320Z,86.95
2016-12-18T10:05:19.538Z,86.86
2016-12-18T10:06:29.353Z,86.86
2016-12-18T10:07:38.824Z,86.1
2016-12-18T10:08:49.001Z,86.76
2016-12-18T10:09:58.826Z,86.19
2016-12-18T10:11:08.628Z,86.72
2016-12-18T10:12:18.161Z,86.38
2016-12-18T10:13:27.949Z,86.76
2016-12-18T10:14:37.748Z,87.05
2016-12-18T10:15:47.552Z,86.76
2016-12-18T10:16:56.475Z,87.05
2016-12-18T10:18:05.666Z,87.1
2016-12-18T10:19:15.162Z,86.53
2016-12-18T10:20:24.572Z,86.72
2016-12-18T10:21:33.847Z,86.63
2016-12-18T10:22:43.650Z,87.1
2016-12-18T10:23:53.138Z,86.72
2016-12-18T10:25:02.932Z,87.29
2016-12-18T10:26:12.720Z,87.14
2016-12-18T10:27:22.196Z,87.05
2016-12-18T10:28:31.486Z,86.72
2016-12-18T10:29:41.062Z,86.53
2016-12-18T10:30:50.891Z,86.76
2016-12-18T10:32:00.670Z,87.34
2016-12-18T10:33:10.169Z,86.67
2016-12-18T10:34:20.081Z,86.76
2016-12-18T10:35:29.580Z,86.57
2016-12-18T10:36:39.078Z,86.76
2016-12-18T10:37:48.558Z,87.14
2016-12-18T10:38:58.397Z,86.86
2016-12-18T10:40:08.187Z,86.57
2016-12-18T10:41:17.709Z,86.57
2016-12-18T10:42:27.530Z,86.76
2016-12-18T10:43:36.716Z,86.76
2016-12-18T10:45:18.422Z,87.24
2016-12-18T10:46:28.222Z,87.34
2016-12-18T10:47:37.715Z,86.95
2016-12-18T10:48:47.201Z,86.86
2016-12-18T10:49:57.034Z,86.67
2016-12-18T10:51:06.813Z,86.95
2016-12-18T10:52:16.592Z,87.05
2016-12-18T10:53:26.065Z,87.05
2016-12-18T10:54:35.585Z,87.05
2016-12-18T10:55:45.399Z,87.34
2016-12-18T10:56:55.197Z,87.14
2016-12-18T10:58:04.977Z,87.62
2016-12-18T10:59:14.797Z,87.67
2016-12-18T11:00:24.295Z,87.9
2016-12-18T11:01:34.099Z,87.81
2016-12-18T11:02:43.262Z,87.57
2016-12-18T11:03:52.799Z,87.71
2016-12-18T11:05:02.644Z,88.47
2016-12-18T11:06:12.144Z,87.76
2016-12-18T11:07:22.005Z,88.47
2016-12-18T11:08:31.514Z,87.9
2016-12-18T11:09:40.992Z,88.28
2016-12-18T11:10:50.167Z,88.09
2016-12-18T11:12:00.225Z,88.38
2016-12-18T11:13:09.701Z,88.47
2016-12-18T11:14:19.729Z,87.81
2016-12-18T11:15:29.214Z,88
2016-12-18T11:16:38.404Z,88.47
2016-12-18T11:17:48.211Z,87.9
2016-12-18T11:18:58.003Z,87.81
2016-12-18T11:20:07.497Z,87.71
2016-12-18T11:21:17.013Z,87.62
2016-12-18T11:22:26.847Z,87.9
2016-12-18T11:23:36.363Z,87.62
2016-12-18T11:24:46.228Z,87.81
2016-12-18T11:25:55.761Z,87.71
2016-12-18T11:27:05.559Z,87.9
2016-12-18T11:28:15.073Z,88.47
2016-12-18T11:29:24.928Z,88.19
2016-12-18T11:30:34.539Z,88.38
2016-12-18T11:31:44.566Z,87.9
2016-12-18T11:32:54.345Z,88.67
2016-12-18T11:34:03.828Z,88.24
2016-12-18T11:35:13.666Z,88.67
2016-12-18T11:36:23.457Z,88.67
2016-12-18T11:37:32.946Z,88.71
2016-12-18T11:38:42.114Z,88.76
2016-12-18T11:39:51.308Z,88.9
2016-12-18T11:41:01.224Z,88.62
2016-12-18T11:42:11.017Z,88.38
2016-12-18T11:43:19.907Z,88.28
2016-12-18T11:44:29.405Z,88.28
2016-12-18T11:45:38.603Z,88.47
2016-12-18T11:46:48.402Z,88.19
2016-12-18T11:47:57.579Z,88.85
2016-12-18T11:49:07.398Z,88.95
2016-12-18T11:50:17.233Z,88.67
2016-12-18T11:51:26.744Z,88.47
2016-12-18T11:52:36.758Z,88.62
2016-12-18T11:53:45.933Z,88.67
2016-12-18T11:54:55.720Z,88.57
2016-12-18T11:56:05.206Z,88.67
2016-12-18T11:57:14.735Z,88.85
2016-12-18T11:58:23.932Z,88.67
2016-12-18T11:59:33.102Z,88.38
2016-12-18T12:00:43.065Z,88.76
2016-12-18T12:01:52.267Z,88.95
2016-12-18T12:03:02.054Z,88.67
2016-12-18T12:04:12.033Z,88.67
2016-12-18T12:05:21.519Z,88.47
2016-12-18T12:06:31.377Z,88.76
2016-12-18T12:07:40.889Z,88.67
2016-12-18T12:08:50.675Z,88.76
2016-12-18T12:10:00.494Z,88.76
2016-12-18T12:11:10.361Z,88.67
2016-12-18T12:12:20.159Z,88.76
2016-12-18T12:13:29.990Z,88.67
2016-12-18T12:14:39.821Z,88.57
2016-12-18T12:15:49.756Z,88.95
2016-12-18T12:16:59.256Z,88.95
2016-12-18T12:18:09.183Z,88.38
2016-12-18T12:19:18.745Z,88.95
2016-12-18T12:20:28.546Z,88.28
2016-12-18T12:21:38.353Z,88.09
2016-12-18T12:22:47.833Z,88.38
2016-12-18T12:23:57.639Z,88.47
2016-12-18T12:25:07.137Z,88.47
2016-12-18T12:26:16.909Z,87.9
2016-12-18T12:27:26.507Z,88.38
2016-12-18T12:28:35.784Z,88.19
2016-12-18T12:29:45.289Z,88.19
2016-12-18T12:30:55.129Z,88.28
2016-12-18T12:32:04.388Z,87.9
2016-12-18T12:33:14.170Z,87.62
2016-12-18T12:34:23.406Z,88.09
2016-12-18T12:35:33.230Z,87.62
2016-12-18T12:36:43.010Z,87.62
2016-12-18T12:37:52.789Z,87.71
2016-12-18T12:39:02.304Z,87.81
2016-12-18T12:40:11.783Z,87.43
2016-12-18T12:41:21.286Z,87.24
2016-12-18T12:42:31.069Z,87.14
2016-12-18T12:43:40.557Z,87.62
2016-12-18T12:44:50.346Z,86.95
2016-12-18T12:45:59.999Z,87.34
2016-12-18T12:47:09.845Z,87.24
2016-12-18T12:48:19.625Z,87.14
2016-12-18T12:49:29.437Z,87.24
2016-12-18T12:50:39.281Z,87.09
2016-12-18T12:51:49.146Z,87.28
2016-12-18T12:52:58.943Z,86.71
2016-12-18T12:54:08.913Z,86.8
2016-12-18T12:55:18.389Z,86.14
2016-12-18T12:56:27.865Z,86.52
2016-12-18T12:57:37.189Z,86.43
2016-12-18T12:58:47.000Z,86.71
2016-12-18T12:59:56.823Z,86.33
2016-12-18T13:01:06.699Z,86.71
2016-12-18T13:02:16.250Z,86.61
2016-12-18T13:03:25.761Z,86.8
2016-12-18T13:04:35.580Z,86.71
2016-12-18T13:05:45.429Z,86.61
2016-12-18T13:06:55.217Z,86.52
2016-12-18T13:08:04.421Z,86.43
2016-12-18T13:09:13.687Z,86.43
2016-12-18T13:10:23.167Z,86.52
2016-12-18T13:11:32.645Z,86.8
2016-12-18T13:12:42.460Z,86.71
2016-12-18T13:13:52.335Z,86.52
2016-12-18T13:15:01.536Z,86.52
2016-12-18T13:16:11.326Z,86.52
2016-12-18T13:17:21.145Z,86.61
2016-12-18T13:18:30.633Z,86.33
2016-12-18T13:19:40.257Z,86.52
2016-12-18T13:20:50.053Z,86.14
2016-12-18T13:21:59.559Z,86.9
2016-12-18T13:23:09.388Z,86.8
2016-12-18T13:24:19.225Z,86.9
2016-12-18T13:25:29.054Z,86.19
2016-12-18T13:26:38.533Z,86.57
2016-12-18T13:27:48.064Z,86.43
2016-12-18T13:28:57.574Z,86.47
2016-12-18T13:30:07.370Z,86.57
2016-12-18T13:31:17.023Z,86.67
2016-12-18T13:32:26.523Z,86.76
2016-12-18T13:33:36.323Z,86.47
2016-12-18T13:34:46.143Z,86.67
2016-12-18T13:35:55.830Z,86.76
2016-12-18T13:37:05.375Z,86.57
2016-12-18T13:38:15.289Z,86.47
2016-12-18T13:39:24.798Z,86.47
2016-12-18T13:40:34.637Z,86.19
2016-12-18T13:41:44.522Z,86.86
2016-12-18T13:42:54.015Z,86.67
2016-12-18T13:44:03.512Z,87.05
2016-12-18T13:45:13.386Z,87.34
2016-12-18T13:46:22.570Z,87.14
2016-12-18T13:47:31.819Z,87.14
2016-12-18T13:48:41.738Z,87.81
2016-12-18T13:49:51.254Z,87.14
2016-12-18T13:51:00.785Z,87.9
2016-12-18T13:52:10.615Z,87.43
2016-12-18T13:53:20.494Z,87.62
2016-12-18T13:54:30.332Z,87.81
2016-12-18T13:55:40.174Z,88.28
2016-12-18T13:56:50.135Z,87.9
2016-12-18T13:57:59.004Z,88.47
2016-12-18T13:59:08.840Z,88.19
2016-12-18T14:00:18.681Z,88
2016-12-18T14:01:28.517Z,88.09
2016-12-18T14:02:38.041Z,88.19
2016-12-18T14:03:47.972Z,88.09
2016-12-18T14:04:57.511Z,88.19
2016-12-18T14:06:07.503Z,88.38
2016-12-18T14:07:16.989Z,88.09
2016-12-18T14:08:26.783Z,88.28
2016-12-18T14:09:36.354Z,88.28
2016-12-18T14:10:46.155Z,88.28
2016-12-18T14:11:55.474Z,88.09
2016-12-18T14:13:05.270Z,88.19
2016-12-18T14:14:15.091Z,88.19
2016-12-18T14:15:24.930Z,88.28
2016-12-18T14:16:34.797Z,88.09
2016-12-18T14:17:44.624Z,88.38
2016-12-18T14:18:54.527Z,88.19
2016-12-18T14:20:04.479Z,88.47
2016-12-18T14:21:14.306Z,88.19
2016-12-18T14:22:23.510Z,88.47
2016-12-18T14:23:33.321Z,88.38
2016-12-18T14:24:42.803Z,88.38
2016-12-18T14:25:52.658Z,88.38
2016-12-18T14:27:02.268Z,88.38
2016-12-18T14:28:11.458Z,87.9
2016-12-18T14:29:21.089Z,88.38
2016-12-18T14:30:30.583Z,88.38
2016-12-18T14:31:40.372Z,88.38
2016-12-18T14:32:50.228Z,88.57
2016-12-18T14:33:59.720Z,88.28
2016-12-18T14:35:09.211Z,88
2016-12-18T14:36:19.013Z,87.81
2016-12-18T14:37:28.881Z,87.9
2016-12-18T14:38:38.385Z,88.47
2016-12-18T14:39:48.203Z,87.81
2016-12-18T14:40:58.040Z,88.38
2016-12-18T14:42:07.550Z,87.9
2016-12-18T14:43:17.739Z,87.71
2016-12-18T14:44:27.258Z,87.62
2016-12-18T14:45:37.086Z,87.71
2016-12-18T14:46:46.899Z,87.62
2016-12-18T14:47:56.414Z,87.81
2016-12-18T14:49:05.946Z,87.81
2016-12-18T14:50:15.726Z,87.71
2016-12-18T14:51:25.212Z,88.09
2016-12-18T14:52:35.049Z,87.52
2016-12-18T14:53:44.534Z,87.9
2016-12-18T14:54:54.046Z,87.43
2016-12-18T14:56:03.633Z,87.52
2016-12-18T14:57:13.121Z,88
2016-12-18T14:58:22.933Z,87.71
2016-12-18T14:59:32.757Z,87.9
2016-12-18T15:00:42.272Z,87.62